Rome, Iowa
Current Conditions -  °F | °C
As of 10:15 PM on Tuesday 27 Jan 2015 (Local Time) from KMPZ Reporting Station
Overcast Overcast  
Wind Chill: 20°   Ceiling: 1000
Heat Index: 28°   Visibility: 7mi
Dew Point: 26°   Wind: 9mph
Humidity: 89%   Direction: 110°ESE
Pressure: 30.22"   Gusts: NA
Location:  40.98°N, 91.68°W
Report Text: KMPZ 280415Z AUTO 11008KT 7SM OVC010 M02/M04 A3022 RMK AO2 T10201036
Loading
Personal Weather Stations






























Interactive Weather Map New forecast layout! Learn more

10-Day Weather Forecast

Advertisements
Track Severe Weather on mobile